createdAt,value
2018-11-02T00:01:05.198Z,12.35
2018-11-02T00:03:32.819Z,13.18
2018-11-02T00:06:00.503Z,12.53
2018-11-02T00:08:28.203Z,12.57
2018-11-02T00:10:55.832Z,12.87
2018-11-02T00:13:23.541Z,16.80
2018-11-02T00:15:51.245Z,13.30
2018-11-02T00:18:18.902Z,12.47
2018-11-02T00:20:46.598Z,10.20
2018-11-02T00:23:14.234Z,9.33
2018-11-02T00:25:41.944Z,12.03
2018-11-02T00:28:09.626Z,14.40
2018-11-02T00:30:37.524Z,10.33
2018-11-02T00:33:05.229Z,15.63
2018-11-02T00:35:32.915Z,15.67
2018-11-02T00:38:00.622Z,12.58
2018-11-02T00:40:28.494Z,12.13
2018-11-02T00:42:56.178Z,11.22
2018-11-02T00:45:23.860Z,10.83
2018-11-02T00:47:51.516Z,9.50
2018-11-02T00:50:19.159Z,9.63
2018-11-02T00:52:46.830Z,7.78
2018-11-02T00:55:14.551Z,8.90
2018-11-02T00:57:42.197Z,7.90
2018-11-02T01:00:12.446Z,9.23
2018-11-02T01:02:40.102Z,7.57
2018-11-02T01:05:08.406Z,6.65
2018-11-02T01:07:36.265Z,6.17
2018-11-02T01:10:04.361Z,7.07
2018-11-02T01:12:32.016Z,6.40
2018-11-02T01:14:59.662Z,7.40
2018-11-02T01:17:27.245Z,7.33
2018-11-02T01:19:54.965Z,6.27
2018-11-02T01:22:22.595Z,5.07
2018-11-02T01:24:50.268Z,6.20
2018-11-02T01:27:17.914Z,5.87
2018-11-02T01:32:19.932Z,6.63
2018-11-02T01:34:47.586Z,6.37
2018-11-02T01:37:15.278Z,7.17
2018-11-02T01:39:42.896Z,7.33
2018-11-02T01:42:10.556Z,6.13
2018-11-02T01:44:38.551Z,5.40
2018-11-02T01:47:06.645Z,6.20
2018-11-02T01:49:34.320Z,5.27
2018-11-02T01:52:08.627Z,4.60
2018-11-02T01:54:36.270Z,4.30
2018-11-02T01:57:04.001Z,4.80
2018-11-02T01:59:31.621Z,4.58
2018-11-02T02:01:59.230Z,4.17
2018-11-02T02:04:26.812Z,5.00
2018-11-02T02:06:54.466Z,3.30
2018-11-02T02:09:22.080Z,2.50
2018-11-02T02:11:49.642Z,3.43
2018-11-02T02:14:17.244Z,4.63
2018-11-02T02:16:44.962Z,4.50
2018-11-02T02:19:13.058Z,4.72
2018-11-02T02:21:40.672Z,4.07
2018-11-02T02:24:08.342Z,4.20
2018-11-02T02:26:36.029Z,4.67
2018-11-02T02:29:03.940Z,4.13
2018-11-02T02:31:31.556Z,4.00
2018-11-02T02:33:59.201Z,3.80
2018-11-02T02:36:26.874Z,3.63
2018-11-02T02:38:54.542Z,2.97
2018-11-02T02:41:22.159Z,3.30
2018-11-02T02:43:49.879Z,2.30
2018-11-02T02:46:17.521Z,3.03
2018-11-02T02:48:45.111Z,2.47
2018-11-02T02:51:12.772Z,3.08
2018-11-02T02:53:40.409Z,3.00
2018-11-02T02:56:07.980Z,2.67
2018-11-02T02:58:35.615Z,2.85
2018-11-02T03:01:03.426Z,3.13
2018-11-02T03:03:31.046Z,3.60
2018-11-02T03:05:58.659Z,3.40
2018-11-02T03:08:26.404Z,2.90
2018-11-02T03:10:54.188Z,3.67
2018-11-02T03:13:23.021Z,3.60
2018-11-02T03:15:53.593Z,4.53
2018-11-02T03:18:21.302Z,4.03
2018-11-02T03:20:48.915Z,3.17
2018-11-02T03:23:16.499Z,3.42
2018-11-02T03:25:44.172Z,3.17
2018-11-02T03:28:11.825Z,3.00
2018-11-02T03:30:39.512Z,3.10
2018-11-02T03:33:07.151Z,2.70
2018-11-02T03:35:34.786Z,3.37
2018-11-02T03:38:02.486Z,3.40
2018-11-02T03:40:30.303Z,3.60
2018-11-02T03:42:57.994Z,3.80
2018-11-02T03:45:25.694Z,3.00
2018-11-02T03:47:53.350Z,2.60
2018-11-02T03:50:21.562Z,2.90
2018-11-02T03:52:49.213Z,3.07
2018-11-02T03:55:16.876Z,2.92
2018-11-02T03:57:44.604Z,3.47
2018-11-02T04:00:12.256Z,3.27
2018-11-02T04:02:40.073Z,3.27
2018-11-02T04:05:08.761Z,2.90
2018-11-02T04:07:36.540Z,3.90
2018-11-02T04:10:04.746Z,2.47
2018-11-02T04:12:32.348Z,3.00
2018-11-02T04:14:59.958Z,3.00
2018-11-02T04:17:27.611Z,3.17
2018-11-02T04:19:55.281Z,2.20
2018-11-02T04:22:22.900Z,2.37
2018-11-02T04:24:50.554Z,2.90
2018-11-02T04:27:18.216Z,3.10
2018-11-02T04:29:45.889Z,3.12
2018-11-02T04:32:13.620Z,3.13
2018-11-02T04:34:41.283Z,2.63
2018-11-02T04:37:08.920Z,2.77
2018-11-02T04:39:36.545Z,3.12
2018-11-02T04:42:04.247Z,3.80
2018-11-02T04:44:31.972Z,3.30
2018-11-02T04:46:59.665Z,4.28
2018-11-02T04:49:27.367Z,2.90
2018-11-02T04:51:55.105Z,4.10
2018-11-02T04:54:22.752Z,3.57
2018-11-02T04:56:50.398Z,3.47
2018-11-02T04:59:18.038Z,3.50
2018-11-02T05:01:45.722Z,3.40
2018-11-02T05:04:13.366Z,3.85
2018-11-02T05:06:41.055Z,4.20
2018-11-02T05:09:08.784Z,2.90
2018-11-02T05:11:36.511Z,3.87
2018-11-02T05:14:04.542Z,4.22
2018-11-02T05:16:32.224Z,6.27
2018-11-02T05:18:59.826Z,6.07
2018-11-02T05:21:27.511Z,5.58
2018-11-02T05:23:55.122Z,5.10
2018-11-02T05:26:22.762Z,3.93
2018-11-02T05:28:50.423Z,4.60
2018-11-02T05:31:18.076Z,4.47
2018-11-02T05:33:45.729Z,4.20
2018-11-02T05:36:13.428Z,4.93
2018-11-02T05:38:41.094Z,5.30
2018-11-02T05:41:08.868Z,4.90
2018-11-02T05:43:36.597Z,4.13
2018-11-02T05:46:05.157Z,3.65
2018-11-02T05:48:32.853Z,4.10
2018-11-02T05:51:00.470Z,3.07
2018-11-02T05:53:28.162Z,3.77
2018-11-02T05:55:55.900Z,2.30
2018-11-02T05:58:23.481Z,3.07
2018-11-02T06:00:51.199Z,3.43
2018-11-02T06:03:18.879Z,4.63
2018-11-02T06:05:46.621Z,4.30
2018-11-02T06:08:14.263Z,4.33
2018-11-02T06:10:42.002Z,3.70
2018-11-02T06:13:09.718Z,3.10
2018-11-02T06:15:37.395Z,3.40
2018-11-02T06:18:05.267Z,3.77
2018-11-02T06:20:33.031Z,3.83
2018-11-02T06:23:00.660Z,5.15
2018-11-02T06:25:28.426Z,3.00
2018-11-02T06:27:56.115Z,5.23
2018-11-02T06:30:23.946Z,4.28
2018-11-02T06:32:51.724Z,3.22
2018-11-02T06:35:19.347Z,3.47
2018-11-02T06:37:47.021Z,4.40
2018-11-02T06:40:14.702Z,3.87
2018-11-02T06:42:42.590Z,3.37
2018-11-02T06:45:10.726Z,2.83
2018-11-02T06:47:38.690Z,3.17
2018-11-02T06:50:06.730Z,5.30
2018-11-02T06:52:34.491Z,6.45
2018-11-02T06:55:02.262Z,5.95
2018-11-02T06:57:29.985Z,5.47
2018-11-02T06:59:57.835Z,4.60
2018-11-02T07:02:25.263Z,5.60
2018-11-02T07:04:52.933Z,4.72
2018-11-02T07:07:20.650Z,4.53
2018-11-02T07:09:48.250Z,4.00
2018-11-02T07:12:15.993Z,3.27
2018-11-02T07:14:43.611Z,4.63
2018-11-02T07:17:11.293Z,4.00
2018-11-02T07:19:38.976Z,3.17
2018-11-02T07:22:06.539Z,2.80
2018-11-02T07:24:34.530Z,3.47
2018-11-02T07:27:02.269Z,3.20
2018-11-02T07:29:30.481Z,3.22
2018-11-02T07:31:58.283Z,3.43
2018-11-02T07:34:26.250Z,3.60
2018-11-02T07:36:54.092Z,3.87
2018-11-02T07:39:21.795Z,3.50
2018-11-02T07:41:49.482Z,3.45
2018-11-02T07:44:17.417Z,4.50
2018-11-02T07:46:45.311Z,3.72
2018-11-02T07:49:13.003Z,4.65
2018-11-02T07:51:40.720Z,5.27
2018-11-02T07:54:08.392Z,5.73
2018-11-02T07:56:36.098Z,4.63
2018-11-02T07:59:03.885Z,6.17
2018-11-02T08:01:31.609Z,5.35
2018-11-02T08:04:00.045Z,5.90
2018-11-02T08:06:27.117Z,4.42
2018-11-02T08:08:54.832Z,3.90
2018-11-02T08:11:22.876Z,4.30
2018-11-02T08:13:50.548Z,5.20
2018-11-02T08:16:18.294Z,5.30
2018-11-02T08:18:46.103Z,4.63
2018-11-02T08:21:14.065Z,5.53
2018-11-02T08:23:41.727Z,6.50
2018-11-02T08:26:09.380Z,5.80
2018-11-02T08:28:37.057Z,6.40
2018-11-02T08:31:04.959Z,6.37
2018-11-02T08:33:32.666Z,6.37
2018-11-02T08:36:00.635Z,6.70
2018-11-02T08:38:28.378Z,6.00
2018-11-02T08:40:56.126Z,4.85
2018-11-02T08:43:23.917Z,4.87
2018-11-02T08:45:51.608Z,5.90
2018-11-02T08:48:19.281Z,5.30
2018-11-02T08:50:46.928Z,5.43
2018-11-02T08:53:14.587Z,5.57
2018-11-02T08:55:42.286Z,5.97
2018-11-02T08:58:10.122Z,6.05
2018-11-02T09:00:37.569Z,6.07
2018-11-02T09:03:05.922Z,7.17
2018-11-02T09:05:33.648Z,6.10
2018-11-02T09:08:01.354Z,6.90
2018-11-02T09:10:29.069Z,6.20
2018-11-02T09:12:56.738Z,7.10
2018-11-02T09:15:24.418Z,6.87
2018-11-02T09:17:52.029Z,5.87
2018-11-02T09:20:19.666Z,7.23
2018-11-02T09:22:47.386Z,7.85
2018-11-02T09:25:15.089Z,7.67
2018-11-02T09:27:42.886Z,6.83
2018-11-02T09:30:13.736Z,6.90
2018-11-02T09:32:41.462Z,6.50
2018-11-02T09:35:09.114Z,7.53
2018-11-02T09:37:36.754Z,10.15
2018-11-02T09:40:06.721Z,8.10
2018-11-02T09:42:34.487Z,8.37
2018-11-02T09:45:02.192Z,6.70
2018-11-02T09:47:29.914Z,7.75
2018-11-02T09:49:57.688Z,7.05
2018-11-02T09:52:25.378Z,8.37
2018-11-02T09:54:53.014Z,8.77
2018-11-02T09:57:20.773Z,8.17
2018-11-02T09:59:48.472Z,9.33
2018-11-02T10:02:16.344Z,9.33
2018-11-02T10:04:44.138Z,7.42
2018-11-02T10:07:11.905Z,8.05
2018-11-02T10:09:39.696Z,7.70
2018-11-02T10:12:07.385Z,8.47
2018-11-02T10:14:35.198Z,8.13
2018-11-02T10:17:02.909Z,6.03
2018-11-02T10:19:31.003Z,4.10
2018-11-02T10:21:58.691Z,6.07
2018-11-02T10:24:26.411Z,1.00
2018-11-02T10:26:54.143Z,1.13
2018-11-02T10:29:22.007Z,0.63
2018-11-02T10:31:49.673Z,1.60
2018-11-02T10:34:17.336Z,0.75
2018-11-02T10:36:45.303Z,0.60
2018-11-02T10:39:13.955Z,0.70
2018-11-02T10:41:47.773Z,0.70
2018-11-02T10:44:18.105Z,0.70
2018-11-02T10:46:46.501Z,1.13
2018-11-02T10:49:14.837Z,1.10
2018-11-02T10:51:42.488Z,0.80
2018-11-02T10:54:10.210Z,0.80
2018-11-02T10:56:37.951Z,0.60
2018-11-02T10:59:05.570Z,0.62
2018-11-02T11:01:38.936Z,0.90
2018-11-02T11:04:07.019Z,0.70
2018-11-02T11:06:35.302Z,0.87
2018-11-02T11:09:05.192Z,0.57
2018-11-02T11:11:33.934Z,0.80
2018-11-02T11:14:01.561Z,0.70
2018-11-02T11:16:29.397Z,0.77
2018-11-02T11:18:57.125Z,0.82
2018-11-02T11:21:25.018Z,0.85
2018-11-02T11:23:52.652Z,3.65
2018-11-02T11:26:20.368Z,0.90
2018-11-02T11:28:48.066Z,0.70
2018-11-02T11:31:15.780Z,0.80
2018-11-02T11:33:43.436Z,0.80
2018-11-02T11:36:11.207Z,0.90
2018-11-02T11:38:38.968Z,2.12
2018-11-02T11:41:06.638Z,6.75
2018-11-02T11:43:34.414Z,1.07
2018-11-02T11:46:02.166Z,0.80
2018-11-02T11:48:29.951Z,1.50
2018-11-02T11:50:57.623Z,1.00
2018-11-02T11:53:25.378Z,1.10
2018-11-02T11:55:53.105Z,0.90
2018-11-02T11:58:20.914Z,1.17
2018-11-02T12:00:48.716Z,1.10
2018-11-02T12:03:16.520Z,0.90
2018-11-02T12:05:44.588Z,1.90
2018-11-02T12:08:12.232Z,0.87
2018-11-02T12:10:39.907Z,1.30
2018-11-02T12:13:07.673Z,1.05
2018-11-02T12:18:13.039Z,1.70
2018-11-02T12:20:41.150Z,1.00
2018-11-02T12:23:09.461Z,1.00
2018-11-02T12:25:37.152Z,1.10
2018-11-02T12:28:05.234Z,1.47
2018-11-02T12:30:33.048Z,1.20
2018-11-02T12:33:00.707Z,1.33
2018-11-02T12:35:28.416Z,0.80
2018-11-02T12:37:56.108Z,1.10
2018-11-02T12:40:24.234Z,1.30
2018-11-02T12:42:52.952Z,1.20
2018-11-02T12:45:21.369Z,1.40
2018-11-02T12:47:49.315Z,1.53
2018-11-02T12:50:21.024Z,1.07
2018-11-02T12:52:49.632Z,1.00
2018-11-02T12:55:17.758Z,0.90
2018-11-02T12:57:45.460Z,0.80
2018-11-02T13:00:15.639Z,1.00
2018-11-02T13:02:44.333Z,1.30
2018-11-02T13:05:12.074Z,1.37
2018-11-02T13:07:39.946Z,1.40
2018-11-02T13:10:10.634Z,1.10
2018-11-02T13:12:38.354Z,1.23
2018-11-02T13:15:08.514Z,1.07
2018-11-02T13:17:36.270Z,1.10
2018-11-02T13:20:04.736Z,1.40
2018-11-02T13:22:32.587Z,1.27
2018-11-02T13:25:00.279Z,1.30
2018-11-02T13:27:28.010Z,1.53
2018-11-02T13:29:55.752Z,1.72
2018-11-02T13:32:23.950Z,1.47
2018-11-02T13:34:51.664Z,1.50
2018-11-02T13:37:19.593Z,1.15
2018-11-02T13:39:47.182Z,1.23
2018-11-02T13:42:14.866Z,1.17
2018-11-02T13:44:42.590Z,1.50
2018-11-02T13:47:10.300Z,1.60
2018-11-02T13:49:38.002Z,1.90
2018-11-02T13:52:07.006Z,1.10
2018-11-02T13:54:35.472Z,1.30
2018-11-02T13:57:03.240Z,1.50
2018-11-02T13:59:30.989Z,1.67
2018-11-02T14:01:58.638Z,1.00
2018-11-02T14:04:26.298Z,1.12
2018-11-02T14:06:54.023Z,0.90
2018-11-02T14:09:21.731Z,1.20
2018-11-02T14:11:49.429Z,1.10
2018-11-02T14:14:17.128Z,1.10
2018-11-02T14:16:44.850Z,1.00
2018-11-02T14:19:12.551Z,1.07
2018-11-02T14:21:40.317Z,0.97
2018-11-02T14:24:07.962Z,1.00
2018-11-02T14:26:35.728Z,1.20
2018-11-02T14:29:03.487Z,1.33
2018-11-02T14:31:31.160Z,1.20
2018-11-02T14:33:58.889Z,1.27
2018-11-02T14:36:26.649Z,1.10
2018-11-02T14:38:54.362Z,1.53
2018-11-02T14:41:22.016Z,1.30
2018-11-02T14:43:49.809Z,1.02
2018-11-02T14:46:17.536Z,1.00
2018-11-02T14:48:45.225Z,0.80
2018-11-02T14:51:12.950Z,1.43
2018-11-02T14:53:40.627Z,1.10
2018-11-02T14:56:08.347Z,1.30
2018-11-02T14:58:36.183Z,0.90
2018-11-02T15:01:04.549Z,1.20
2018-11-02T15:03:32.212Z,1.63
2018-11-02T15:05:59.935Z,1.53
2018-11-02T15:08:27.589Z,1.13
2018-11-02T15:10:55.483Z,1.35
2018-11-02T15:13:23.181Z,1.05
2018-11-02T15:15:50.887Z,1.67
2018-11-02T15:18:18.602Z,1.50
2018-11-02T15:20:46.338Z,1.60
2018-11-02T15:23:14.031Z,1.80
2018-11-02T15:25:41.728Z,1.80
2018-11-02T15:28:09.391Z,1.35
2018-11-02T15:30:37.185Z,1.33
2018-11-02T15:33:05.636Z,1.30
2018-11-02T15:35:33.396Z,1.67
2018-11-02T15:38:01.049Z,1.63
2018-11-02T15:40:28.808Z,1.75
2018-11-02T15:42:56.623Z,1.65
2018-11-02T15:45:24.562Z,1.35
2018-11-02T15:47:52.361Z,1.92
2018-11-02T15:50:20.030Z,1.80
2018-11-02T15:52:47.761Z,2.20
2018-11-02T15:55:15.463Z,2.13
2018-11-02T15:57:43.113Z,1.90
2018-11-02T16:00:15.552Z,2.27
2018-11-02T16:02:44.175Z,2.17
2018-11-02T16:05:11.883Z,2.43
2018-11-02T16:07:39.846Z,2.93
2018-11-02T16:10:08.704Z,2.93
2018-11-02T16:12:36.422Z,3.00
2018-11-02T16:15:05.331Z,3.30
2018-11-02T16:17:33.047Z,3.00
2018-11-02T16:20:00.764Z,3.83
2018-11-02T16:22:28.741Z,5.30
2018-11-02T16:24:56.456Z,5.83
2018-11-02T16:27:34.900Z,4.62
2018-11-02T16:30:02.780Z,4.07
2018-11-02T16:32:30.430Z,3.60
2018-11-02T16:34:58.397Z,4.00
2018-11-02T16:37:26.806Z,5.20
2018-11-02T16:39:55.561Z,5.90
2018-11-02T16:42:23.570Z,6.47
2018-11-02T16:44:52.567Z,6.40
2018-11-02T16:47:20.342Z,6.17
2018-11-02T16:49:48.649Z,6.10
2018-11-02T16:52:16.402Z,5.40
2018-11-02T16:54:44.144Z,6.40
2018-11-02T16:57:11.804Z,6.58
2018-11-02T16:59:39.477Z,4.53
2018-11-02T17:02:07.238Z,38.80
2018-11-02T17:04:35.006Z,17.27
2018-11-02T17:07:02.633Z,8.87
2018-11-02T17:09:30.382Z,5.50
2018-11-02T17:11:58.042Z,4.00
2018-11-02T17:14:25.736Z,6.03
2018-11-02T17:16:53.432Z,61.10
2018-11-02T17:19:21.234Z,28.63
2018-11-02T17:21:49.073Z,24.97
2018-11-02T17:24:16.892Z,21.87
2018-11-02T17:26:44.475Z,18.93
2018-11-02T17:29:12.118Z,11.53
2018-11-02T17:31:39.861Z,10.40
2018-11-02T17:34:07.529Z,7.83
2018-11-02T17:36:35.262Z,6.58
2018-11-02T17:39:04.320Z,5.58
2018-11-02T17:41:32.718Z,5.03
2018-11-02T17:44:00.380Z,4.67
2018-11-02T17:46:28.058Z,5.60
2018-11-02T17:48:55.845Z,8.80
2018-11-02T17:51:23.481Z,16.42
2018-11-02T17:53:51.827Z,9.00
2018-11-02T17:56:19.524Z,9.20
2018-11-02T17:58:46.716Z,7.33
2018-11-02T18:01:14.493Z,6.63
2018-11-02T18:03:42.411Z,6.03
2018-11-02T18:06:10.150Z,6.40
2018-11-02T18:08:37.919Z,5.53
2018-11-02T18:11:05.720Z,5.33
2018-11-02T18:13:33.437Z,6.72
2018-11-02T18:16:01.161Z,5.40
2018-11-02T18:18:28.862Z,6.30
2018-11-02T18:20:56.596Z,8.07
2018-11-02T18:23:24.289Z,8.43
2018-11-02T18:25:52.076Z,9.00
2018-11-02T18:28:19.825Z,7.35
2018-11-02T18:30:47.512Z,6.30
2018-11-02T18:33:15.240Z,7.83
2018-11-02T18:35:42.965Z,8.48
2018-11-02T18:38:10.642Z,8.63
2018-11-02T18:40:38.416Z,8.40
2018-11-02T18:43:06.073Z,7.50
2018-11-02T18:45:33.706Z,7.97
2018-11-02T18:48:01.463Z,7.15
2018-11-02T18:50:29.105Z,8.70
2018-11-02T18:52:56.776Z,8.47
2018-11-02T18:55:24.510Z,8.70
2018-11-02T18:57:52.265Z,8.40
2018-11-02T19:00:19.965Z,8.10
2018-11-02T19:02:47.648Z,8.40
2018-11-02T19:05:16.569Z,9.18
2018-11-02T19:07:44.519Z,9.30
2018-11-02T19:10:12.401Z,8.40
2018-11-02T19:12:40.599Z,10.60
2018-11-02T19:15:11.236Z,8.20
2018-11-02T19:17:39.082Z,9.40
2018-11-02T19:20:07.752Z,8.50
2018-11-02T19:22:35.612Z,8.70
2018-11-02T19:25:03.618Z,9.07
2018-11-02T19:27:31.403Z,13.27
2018-11-02T19:29:59.107Z,10.90
2018-11-02T19:32:27.040Z,12.03
2018-11-02T19:34:54.969Z,12.37
2018-11-02T19:37:22.478Z,10.60
2018-11-02T19:39:50.250Z,8.97
2018-11-02T19:42:18.076Z,12.30
2018-11-02T19:44:45.700Z,11.50
2018-11-02T19:47:13.486Z,12.70
2018-11-02T19:49:41.165Z,13.60
2018-11-02T19:52:08.847Z,11.85
2018-11-02T19:54:39.662Z,11.25
2018-11-02T19:57:07.330Z,11.80
2018-11-02T19:59:35.044Z,10.23
2018-11-02T20:02:02.745Z,9.00
2018-11-02T20:04:30.830Z,9.53
2018-11-02T20:06:58.595Z,9.65
2018-11-02T20:09:26.371Z,8.45
2018-11-02T20:11:54.119Z,9.10
2018-11-02T20:14:21.782Z,9.50
2018-11-02T20:16:49.556Z,9.60
2018-11-02T20:19:17.272Z,8.93
2018-11-02T20:21:44.927Z,9.30
2018-11-02T20:24:12.618Z,10.45
2018-11-02T20:26:40.267Z,10.80
2018-11-02T20:29:07.984Z,9.73
2018-11-02T20:31:35.676Z,10.53
2018-11-02T20:34:03.763Z,10.70
2018-11-02T20:36:31.409Z,10.80
2018-11-02T20:38:59.309Z,13.40
2018-11-02T20:41:27.000Z,12.23
2018-11-02T20:43:54.661Z,10.05
2018-11-02T20:46:22.384Z,11.47
2018-11-02T20:48:50.140Z,12.23
2018-11-02T20:51:17.849Z,12.55
2018-11-02T20:53:45.578Z,14.78
2018-11-02T20:56:13.269Z,14.20
2018-11-02T20:58:40.987Z,13.00
2018-11-02T21:01:09.282Z,14.10
2018-11-02T21:03:37.001Z,13.98
2018-11-02T21:06:05.011Z,13.17
2018-11-02T21:08:33.077Z,13.60
2018-11-02T21:11:00.740Z,13.32
2018-11-02T21:13:28.476Z,10.73
2018-11-02T21:15:56.162Z,12.80
2018-11-02T21:18:23.939Z,11.80
2018-11-02T21:20:52.281Z,13.80
2018-11-02T21:23:19.970Z,11.73
2018-11-02T21:25:48.044Z,13.27
2018-11-02T21:28:15.777Z,12.87
2018-11-02T21:30:43.644Z,12.90
2018-11-02T21:33:11.322Z,13.20
2018-11-02T21:35:39.154Z,12.80
2018-11-02T21:38:06.858Z,13.03
2018-11-02T21:40:34.749Z,12.40
2018-11-02T21:43:02.479Z,11.80
2018-11-02T21:45:30.139Z,11.43
2018-11-02T21:47:57.827Z,12.40
2018-11-02T21:50:25.475Z,17.50
2018-11-02T21:52:53.131Z,14.87
2018-11-02T21:55:20.937Z,12.00
2018-11-02T21:57:48.573Z,14.53
2018-11-02T22:00:17.489Z,14.90
2018-11-02T22:02:45.695Z,13.97
2018-11-02T22:05:13.749Z,13.10
2018-11-02T22:07:42.518Z,12.57
2018-11-02T22:10:11.129Z,12.53
2018-11-02T22:12:38.981Z,12.57
2018-11-02T22:15:07.909Z,13.93
2018-11-02T22:17:35.614Z,12.80
2018-11-02T22:20:03.899Z,12.00
2018-11-02T22:22:31.910Z,13.90
2018-11-02T22:24:59.523Z,11.70
2018-11-02T22:27:27.187Z,13.90
2018-11-02T22:29:54.813Z,12.47
2018-11-02T22:32:22.515Z,14.20
2018-11-02T22:34:50.147Z,13.50
2018-11-02T22:37:17.785Z,11.13
2018-11-02T22:39:45.471Z,16.05
2018-11-02T22:42:13.123Z,12.33
2018-11-02T22:44:40.733Z,15.53
2018-11-02T22:47:08.441Z,13.20
2018-11-02T22:49:36.163Z,11.22
2018-11-02T22:52:04.149Z,11.80
2018-11-02T22:54:31.830Z,13.30
2018-11-02T22:56:59.511Z,11.83
2018-11-02T22:59:27.215Z,12.65
2018-11-02T23:01:54.963Z,11.90
2018-11-02T23:04:22.696Z,11.50
2018-11-02T23:06:50.591Z,11.40
2018-11-02T23:09:18.241Z,11.70
2018-11-02T23:11:45.927Z,11.70
2018-11-02T23:14:13.758Z,11.80
2018-11-02T23:16:41.477Z,11.95
2018-11-02T23:19:09.238Z,13.05
2018-11-02T23:21:36.952Z,11.10
2018-11-02T23:24:05.262Z,12.67
2018-11-02T23:26:33.094Z,12.55
2018-11-02T23:29:00.807Z,18.95
2018-11-02T23:31:28.482Z,12.80
2018-11-02T23:33:56.168Z,9.30
2018-11-02T23:36:23.870Z,12.53
2018-11-02T23:38:51.504Z,13.63
2018-11-02T23:41:19.143Z,11.03
2018-11-02T23:43:47.034Z,11.60
2018-11-02T23:46:14.722Z,13.07
2018-11-02T23:48:42.402Z,12.00
2018-11-02T23:51:10.018Z,13.30
2018-11-02T23:53:37.677Z,13.60
2018-11-02T23:56:05.323Z,12.10
2018-11-02T23:58:33.134Z,10.13
